METAR Data
IDs: Format: Raw Decoded Include TAF

Data at: 1347 UTC 14 Dec 2019

PAEG 141253Z AUTO 00000KT 10SM CLR M09/M12 A2984 RMK AO2 SLP120 T10941117 TSNO
PAEG 141153Z AUTO 00000KT 10SM CLR M09/M11 A2984 RMK AO2 SLP121 T10891111 11056 21100 51015 TSNO
PAEG 141053Z AUTO 00000KT 10SM CLR M07/M10 A2983 RMK AO2 SLP117 T10671100 TSNO
PAEG 140953Z AUTO 00000KT 10SM CLR M08/M11 A2982 RMK AO2 SLP113 T10831111 TSNO
PAEG 140853Z AUTO 00000KT 10SM CLR M08/M11 A2980 RMK AO2 SLP106 T10781106 410281144 50001 TSNO
PAEG 140753Z AUTO 14003KT 10SM CLR M08/M11 A2980 RMK AO2 SLP108 T10781111 TSNO
PAEG 140653Z AUTO 13003KT 10SM SCT030 M07/M11 A2979 RMK AO2 SLP105 T10671106 TSNO
PAEG 140553Z AUTO 14004KT 10SM OVC031 M06/M10 A2979 RMK AO2 SLP104 T10561100 11039 21089 53007 TSNO
PAEG 140453Z AUTO 15006KT 10SM SCT031 M05/M10 A2979 RMK AO2 SLP101 T10501100 TSNO
PAEG 140353Z AUTO 00000KT 10SM CLR M05/M10 A2978 RMK AO2 SLP097 T10501100 TSNO
PAEG 140253Z AUTO 00000KT 10SM FEW033 M08/M11 A2977 RMK AO2 SLP097 T10781111 51008 TSNO
PAEG 140153Z AUTO 00000KT 10SM FEW033 M06/M10 A2977 RMK AO2 SLP094 T10611100 TSNO
PAEG 140053Z AUTO VRB04KT 10SM CLR M05/M10 A2976 RMK AO2 SLP091 T10501100 TSNO
PAEG 132353Z AUTO 13006KT 10SM CLR M04/M10 A2975 RMK AO2 SLP091 T10441100 11044 21100 51010 TSNO
PAEG 132253Z AUTO 13005KT 10SM CLR M05/M10 A2974 RMK AO2 SLP088 T10501100 TSNO
PAEG 132153Z AUTO VRB04KT 10SM CLR M07/M11 A2973 RMK AO2 SLP085 T10671106 TSNO
PAEG 132053Z AUTO 00000KT 10SM CLR M07/M10 A2972 RMK AO2 SLP082 T10671100 51014 TSNO
PAEG 131953Z AUTO 00000KT 10SM CLR M10/M12 A2971 RMK AO2 SLP079 T11001117 TSNO
PAEG 131853Z AUTO 13004KT 10SM FEW032 M08/M11 A2969 RMK AO2 SLP073 T10781111 TSNO
PAEG 131753Z AUTO VRB03KT 10SM CLR M06/M10 A2968 RMK AO2 SLP067 T10561100 11028 21111 53012 TSNO
PAEG 131553Z AUTO 15005KT 10SM OVC038 M04/M09 A2965 RMK AO2 SLP056 T10391094 TSNO
PAEG 131453Z AUTO VRB05G14KT 10SM OVC038 M03/M09 A2964 RMK AO2 SLP054 T10331094 53009 TSNO
PAEG 131353Z AUTO 15008KT 100V170 10SM OVC038 M03/M09 A2962 RMK AO2 SLP048 T10331094 TSNO
PAEG 131253Z AUTO 16007KT 120V190 10SM OVC037 M03/M09 A2962 RMK AO2 SLP045 T10331094 TSNO
PAEG 131153Z AUTO VRB03KT 10SM OVC038 M11/M15 A2961 RMK AO2 SLP047 T11111150 11111 21144 53000 TSNO
PAEG 131053Z AUTO 00000KT 10SM OVC039 M13/M17 A2961 RMK AO2 SLP047 T11281167 TSNO
PAEG 130953Z AUTO 00000KT 10SM OVC041 M13/M17 A2961 RMK AO2 SLP045 T11331167 TSNO
PAEG 130853Z AUTO 24003KT 10SM OVC065 M14/M18 A2961 RMK AO2 SLP048 T11441178 410781144 50001 TSNO
PAEG 130753Z AUTO 00000KT 10SM OVC065 M14/M18 A2961 RMK AO2 SLP048 T11391178 TSNO
PAEG 130653Z AUTO 00000KT 10SM OVC060 M13/M18 A2962 RMK AO2 SLP049 T11331178 TSNO
PAEG 130553Z AUTO 33005KT 10SM OVC060 M14/M19 A2961 RMK AO2 SLP046 T11391189 11111 21139 56009 TSNO
PAEG 130453Z AUTO VRB06KT 10SM OVC060 M13/M19 A2961 RMK AO2 SLP047 T11281189 TSNO
PAEG 130353Z AUTO 13010G19KT 100V160 10SM OVC060 M13/M19 A2963 RMK AO2 SLP051 T11331194 TSNO
PAEG 130253Z AUTO 10010G16KT 10SM OVC060 M13/M19 A2964 RMK AO2 SLP054 T11281189 53001 TSNO
PAEG 130153Z AUTO 10010G18KT 10SM BKN055 M13/M18 A2963 RMK AO2 SLP053 T11281183 TSNO